sensor_id;sensor_type;location;lat;lon;timestamp;pressure;altitude;pressure_sealevel;temperature;humidity
67038;BME280;53940;53.204;6.590;2022-07-29T00:01:22;101942.91;;;21.98;55.57
67038;BME280;53940;53.204;6.590;2022-07-29T00:04:23;101939.25;;;21.99;55.79
67038;BME280;53940;53.204;6.590;2022-07-29T00:07:23;101950.97;;;21.98;55.74
67038;BME280;53940;53.204;6.590;2022-07-29T00:10:24;101947.41;;;21.97;55.66
67038;BME280;53940;53.204;6.590;2022-07-29T00:13:24;101936.69;;;21.97;55.64
67038;BME280;53940;53.204;6.590;2022-07-29T00:16:24;101936.69;;;21.97;55.79
67038;BME280;53940;53.204;6.590;2022-07-29T00:19:24;101941.22;;;21.97;55.50
67038;BME280;53940;53.204;6.590;2022-07-29T00:22:25;101934.13;;;21.96;55.58
67038;BME280;53940;53.204;6.590;2022-07-29T00:25:25;101928.78;;;21.96;55.60
67038;BME280;53940;53.204;6.590;2022-07-29T00:28:26;101934.13;;;21.96;55.76
67038;BME280;53940;53.204;6.590;2022-07-29T00:31:26;101929.72;;;21.94;55.62
67038;BME280;53940;53.204;6.590;2022-07-29T00:34:27;101927.03;;;21.94;55.70
67038;BME280;53940;53.204;6.590;2022-07-29T00:37:45;101927.03;;;21.94;55.48
67038;BME280;53940;53.204;6.590;2022-07-29T00:40:46;101925.22;;;21.95;55.50
67038;BME280;53940;53.204;6.590;2022-07-29T00:43:47;101913.75;;;21.93;55.43
67038;BME280;53940;53.204;6.590;2022-07-29T00:46:47;101917.28;;;21.93;55.41
67038;BME280;53940;53.204;6.590;2022-07-29T00:49:48;101919.97;;;21.93;55.55
67038;BME280;53940;53.204;6.590;2022-07-29T00:52:48;101907.53;;;21.92;55.56
67038;BME280;53940;53.204;6.590;2022-07-29T00:55:50;101901.28;;;21.92;55.56
67038;BME280;53940;53.204;6.590;2022-07-29T00:58:51;101895.09;;;21.91;55.50
67038;BME280;53940;53.204;6.590;2022-07-29T01:01:52;101894.22;;;21.91;55.70
67038;BME280;53940;53.204;6.590;2022-07-29T01:04:53;101903.13;;;21.91;55.69
67038;BME280;53940;53.204;6.590;2022-07-29T01:07:57;101888.84;;;21.91;55.54
67038;BME280;53940;53.204;6.590;2022-07-29T01:10:58;101889.00;;;21.89;55.66
67038;BME280;53940;53.204;6.590;2022-07-29T01:14:00;101888.03;;;21.90;55.66
67038;BME280;53940;53.204;6.590;2022-07-29T01:17:33;101886.16;;;21.91;55.63
67038;BME280;53940;53.204;6.590;2022-07-29T01:30:27;101875.59;;;21.89;55.50
67038;BME280;53940;53.204;6.590;2022-07-29T01:33:33;101879.22;;;21.88;55.30
67038;BME280;53940;53.204;6.590;2022-07-29T01:36:55;101874.84;;;21.87;55.60
67038;BME280;53940;53.204;6.590;2022-07-29T01:40:02;101865.94;;;21.87;55.34
67038;BME280;53940;53.204;6.590;2022-07-29T01:43:09;101865.06;;;21.86;55.50
67038;BME280;53940;53.204;6.590;2022-07-29T01:46:17;101865.94;;;21.87;55.24
67038;BME280;53940;53.204;6.590;2022-07-29T01:49:24;101858.84;;;21.86;55.38
67038;BME280;53940;53.204;6.590;2022-07-29T01:52:31;101852.66;;;21.85;55.35
67038;BME280;53940;53.204;6.590;2022-07-29T01:55:37;101848.13;;;21.86;55.45
67038;BME280;53940;53.204;6.590;2022-07-29T01:58:40;101835.69;;;21.85;55.25
67038;BME280;53940;53.204;6.590;2022-07-29T02:01:42;101845.44;;;21.86;55.46
67038;BME280;53940;53.204;6.590;2022-07-29T02:04:45;101841.03;;;21.85;55.36
67038;BME280;53940;53.204;6.590;2022-07-29T02:07:49;101831.19;;;21.85;55.35
67038;BME280;53940;53.204;6.590;2022-07-29T02:10:51;101824.09;;;21.84;55.60
67038;BME280;53940;53.204;6.590;2022-07-29T02:13:55;101827.78;;;21.83;55.26
67038;BME280;53940;53.204;6.590;2022-07-29T02:16:58;101817.88;;;21.84;55.41
67038;BME280;53940;53.204;6.590;2022-07-29T02:20:02;101818.00;;;21.82;55.59
67038;BME280;53940;53.204;6.590;2022-07-29T02:23:04;101818.75;;;21.84;55.60
67038;BME280;53940;53.204;6.590;2022-07-29T02:26:05;101816.19;;;21.83;55.51
67038;BME280;53940;53.204;6.590;2022-07-29T02:29:08;101817.03;;;21.83;55.44
67038;BME280;53940;53.204;6.590;2022-07-29T02:32:10;101810.81;;;21.83;55.46
67038;BME280;53940;53.204;6.590;2022-07-29T02:35:14;101809.94;;;21.82;55.48
67038;BME280;53940;53.204;6.590;2022-07-29T02:38:16;101804.56;;;21.82;55.27
67038;BME280;53940;53.204;6.590;2022-07-29T02:41:48;101803.75;;;21.81;55.49
67038;BME280;53940;53.204;6.590;2022-07-29T02:44:50;101808.25;;;21.81;55.46
67038;BME280;53940;53.204;6.590;2022-07-29T02:47:51;101796.69;;;21.80;55.56
67038;BME280;53940;53.204;6.590;2022-07-29T02:51:05;101808.25;;;21.81;55.52
67038;BME280;53940;53.204;6.590;2022-07-29T02:54:07;101802.88;;;21.81;55.38
67038;BME280;53940;53.204;6.590;2022-07-29T02:57:15;101799.34;;;21.80;55.35
67038;BME280;53940;53.204;6.590;2022-07-29T03:00:17;101801.19;;;21.80;55.23
67038;BME280;53940;53.204;6.590;2022-07-29T03:03:18;101800.31;;;21.79;55.20
67038;BME280;53940;53.204;6.590;2022-07-29T03:06:21;101792.41;;;21.78;55.45
67038;BME280;53940;53.204;6.590;2022-07-29T03:09:22;101790.44;;;21.80;55.23
67038;BME280;53940;53.204;6.590;2022-07-29T03:12:23;101788.75;;;21.79;55.51
67038;BME280;53940;53.204;6.590;2022-07-29T03:15:25;101778.00;;;21.79;55.28
67038;BME280;53940;53.204;6.590;2022-07-29T03:18:27;101776.16;;;21.79;55.28
67038;BME280;53940;53.204;6.590;2022-07-29T03:21:27;101776.31;;;21.78;55.31
67038;BME280;53940;53.204;6.590;2022-07-29T03:24:33;101776.31;;;21.78;55.21
67038;BME280;53940;53.204;6.590;2022-07-29T03:27:34;101777.16;;;21.78;55.42
67038;BME280;53940;53.204;6.590;2022-07-29T03:30:34;101768.25;;;21.78;55.15
67038;BME280;53940;53.204;6.590;2022-07-29T03:33:34;101777.28;;;21.77;55.48
67038;BME280;53940;53.204;6.590;2022-07-29T03:36:35;101774.59;;;21.77;55.08
67038;BME280;53940;53.204;6.590;2022-07-29T03:39:40;101774.59;;;21.77;55.11
67038;BME280;53940;53.204;6.590;2022-07-29T03:42:42;101774.59;;;21.77;55.22
67038;BME280;53940;53.204;6.590;2022-07-29T03:45:46;101772.75;;;21.77;55.42
67038;BME280;53940;53.204;6.590;2022-07-29T03:48:50;101765.69;;;21.76;55.05
67038;BME280;53940;53.204;6.590;2022-07-29T03:51:52;101765.69;;;21.76;55.12
67038;BME280;53940;53.204;6.590;2022-07-29T03:54:53;101759.47;;;21.76;54.99
67038;BME280;53940;53.204;6.590;2022-07-29T03:57:55;101761.19;;;21.77;54.98
67038;BME280;53940;53.204;6.590;2022-07-29T04:00:57;101759.47;;;21.76;55.37
67038;BME280;53940;53.204;6.590;2022-07-29T04:03:57;101762.16;;;21.76;55.09
67038;BME280;53940;53.204;6.590;2022-07-29T04:06:58;101767.50;;;21.76;55.02
67038;BME280;53940;53.204;6.590;2022-07-29T04:09:58;101771.19;;;21.75;55.07
67038;BME280;53940;53.204;6.590;2022-07-29T04:12:59;101771.19;;;21.75;55.28
67038;BME280;53940;53.204;6.590;2022-07-29T04:16:00;101774.72;;;21.75;55.12
67038;BME280;53940;53.204;6.590;2022-07-29T04:19:00;101775.56;;;21.76;55.08
67038;BME280;53940;53.204;6.590;2022-07-29T04:22:00;101765.81;;;21.75;55.19
67038;BME280;53940;53.204;6.590;2022-07-29T04:25:01;101771.19;;;21.75;55.21
67038;BME280;53940;53.204;6.590;2022-07-29T04:28:01;101764.09;;;21.74;55.08
67038;BME280;53940;53.204;6.590;2022-07-29T04:31:02;101770.34;;;21.74;55.11
67038;BME280;53940;53.204;6.590;2022-07-29T04:34:02;101758.75;;;21.74;55.14
67038;BME280;53940;53.204;6.590;2022-07-29T04:37:02;101771.19;;;21.75;55.00
67038;BME280;53940;53.204;6.590;2022-07-29T04:40:03;101761.44;;;21.74;55.25
67038;BME280;53940;53.204;6.590;2022-07-29T04:43:04;101758.75;;;21.74;54.90
67038;BME280;53940;53.204;6.590;2022-07-29T04:46:06;101760.44;;;21.75;55.22
67038;BME280;53940;53.204;6.590;2022-07-29T04:49:06;101764.09;;;21.74;55.18
67038;BME280;53940;53.204;6.590;2022-07-29T04:52:06;101769.47;;;21.74;55.18
67038;BME280;53940;53.204;6.590;2022-07-29T04:55:07;101774.84;;;21.74;55.00
67038;BME280;53940;53.204;6.590;2022-07-29T04:58:08;101769.47;;;21.74;54.95
67038;BME280;53940;53.204;6.590;2022-07-29T05:01:08;101764.09;;;21.74;55.15
67038;BME280;53940;53.204;6.590;2022-07-29T05:04:08;101765.94;;;21.73;55.05
67038;BME280;53940;53.204;6.590;2022-07-29T05:07:09;101756.06;;;21.74;55.15
67038;BME280;53940;53.204;6.590;2022-07-29T05:10:09;101762.41;;;21.73;54.84
67038;BME280;53940;53.204;6.590;2022-07-29T05:13:10;101761.44;;;21.74;55.01
67038;BME280;53940;53.204;6.590;2022-07-29T05:16:10;101761.53;;;21.72;55.15
67038;BME280;53940;53.204;6.590;2022-07-29T05:19:11;101766.78;;;21.74;55.05
67038;BME280;53940;53.204;6.590;2022-07-29T05:22:11;101760.56;;;21.73;54.85
67038;BME280;53940;53.204;6.590;2022-07-29T05:25:11;101751.69;;;21.73;54.80
67038;BME280;53940;53.204;6.590;2022-07-29T05:28:12;101757.88;;;21.73;55.13
67038;BME280;53940;53.204;6.590;2022-07-29T05:31:12;101764.09;;;21.74;55.06
67038;BME280;53940;53.204;6.590;2022-07-29T05:34:14;101757.03;;;21.73;54.99
67038;BME280;53940;53.204;6.590;2022-07-29T05:37:14;101753.38;;;21.74;54.89
67038;BME280;53940;53.204;6.590;2022-07-29T05:40:15;101753.38;;;21.74;55.11
67038;BME280;53940;53.204;6.590;2022-07-29T05:43:15;101754.25;;;21.74;54.84
67038;BME280;53940;53.204;6.590;2022-07-29T05:46:16;101761.31;;;21.75;55.13
67038;BME280;53940;53.204;6.590;2022-07-29T05:49:16;101763.13;;;21.75;55.06
67038;BME280;53940;53.204;6.590;2022-07-29T05:52:17;101765.69;;;21.76;54.80
67038;BME280;53940;53.204;6.590;2022-07-29T05:55:17;101768.38;;;21.76;55.06
67038;BME280;53940;53.204;6.590;2022-07-29T05:58:18;101774.59;;;21.77;54.89
67038;BME280;53940;53.204;6.590;2022-07-29T06:01:18;101766.56;;;21.77;54.89
67038;BME280;53940;53.204;6.590;2022-07-29T06:04:19;101773.75;;;21.76;55.22
67038;BME280;53940;53.204;6.590;2022-07-29T06:07:19;101774.47;;;21.78;55.08
67038;BME280;53940;53.204;6.590;2022-07-29T06:10:20;101773.47;;;21.79;55.07
67038;BME280;53940;53.204;6.590;2022-07-29T06:13:20;101776.03;;;21.81;54.97
67038;BME280;53940;53.204;6.590;2022-07-29T06:16:20;101772.38;;;21.82;55.15
67038;BME280;53940;53.204;6.590;2022-07-29T06:19:21;101772.38;;;21.82;55.07
67038;BME280;53940;53.204;6.590;2022-07-29T06:22:21;101774.94;;;21.84;54.93
67038;BME280;53940;53.204;6.590;2022-07-29T06:25:22;101771.28;;;21.85;55.19
67038;BME280;53940;53.204;6.590;2022-07-29T06:28:22;101779.22;;;21.86;54.94
67038;BME280;53940;53.204;6.590;2022-07-29T06:31:22;101770.19;;;21.87;55.16
67038;BME280;53940;53.204;6.590;2022-07-29T06:34:23;101768.25;;;21.89;54.91
67038;BME280;53940;53.204;6.590;2022-07-29T06:37:23;101771.66;;;21.91;54.89
67038;BME280;53940;53.204;6.590;2022-07-29T06:40:24;101771.53;;;21.93;55.11
67038;BME280;53940;53.204;6.590;2022-07-29T06:43:44;101780.41;;;21.93;54.66
67038;BME280;53940;53.204;6.590;2022-07-29T06:46:45;101786.66;;;21.94;54.70
67038;BME280;53940;53.204;6.590;2022-07-29T06:49:49;101785.53;;;21.97;54.71
67038;BME280;53940;53.204;6.590;2022-07-29T06:52:49;101787.25;;;21.98;54.63
67038;BME280;53940;53.204;6.590;2022-07-29T06:55:50;101779.06;;;21.99;54.71
67038;BME280;53940;53.204;6.590;2022-07-29T06:58:50;101786.97;;;22.01;54.71
67038;BME280;53940;53.204;6.590;2022-07-29T07:01:51;101795.78;;;22.03;54.65
67038;BME280;53940;53.204;6.590;2022-07-29T07:04:51;101785.03;;;22.03;54.69
67038;BME280;53940;53.204;6.590;2022-07-29T07:07:51;101789.31;;;22.05;54.87
67038;BME280;53940;53.204;6.590;2022-07-29T07:10:52;101782.09;;;22.06;54.75
67038;BME280;53940;53.204;6.590;2022-07-29T07:13:53;101791.84;;;22.07;54.78
67038;BME280;53940;53.204;6.590;2022-07-29T07:16:53;101786.34;;;22.08;54.43
67038;BME280;53940;53.204;6.590;2022-07-29T07:19:54;101785.38;;;22.10;54.79
67038;BME280;53940;53.204;6.590;2022-07-29T07:22:54;101780.88;;;22.10;54.89
67038;BME280;53940;53.204;6.590;2022-07-29T07:25:54;101782.56;;;22.11;54.68
67038;BME280;53940;53.204;6.590;2022-07-29T07:28:55;101786.94;;;22.12;54.67
67038;BME280;53940;53.204;6.590;2022-07-29T07:31:57;101788.66;;;22.13;54.72
67038;BME280;53940;53.204;6.590;2022-07-29T07:34:57;101794.88;;;22.14;54.82
67038;BME280;53940;53.204;6.590;2022-07-29T07:37:59;101782.34;;;22.14;54.55
67038;BME280;53940;53.204;6.590;2022-07-29T07:41:00;101772.44;;;22.15;54.54
67038;BME280;53940;53.204;6.590;2022-07-29T07:44:00;101777.69;;;22.16;54.60
67038;BME280;53940;53.204;6.590;2022-07-29T07:47:00;101778.53;;;22.17;54.52
67038;BME280;53940;53.204;6.590;2022-07-29T07:50:02;101783.75;;;22.18;54.64
67038;BME280;53940;53.204;6.590;2022-07-29T07:53:03;101788.16;;;22.19;54.48
67038;BME280;53940;53.204;6.590;2022-07-29T07:56:03;101778.16;;;22.21;54.58
67038;BME280;53940;53.204;6.590;2022-07-29T07:59:06;101794.25;;;22.21;54.64
67038;BME280;53940;53.204;6.590;2022-07-29T08:02:07;101796.94;;;22.21;54.61
67038;BME280;53940;53.204;6.590;2022-07-29T08:05:08;101790.59;;;22.23;54.36
67038;BME280;53940;53.204;6.590;2022-07-29T08:08:13;101792.28;;;22.24;54.20
67038;BME280;53940;53.204;6.590;2022-07-29T08:11:13;101788.63;;;22.25;54.11
67038;BME280;53940;53.204;6.590;2022-07-29T08:14:14;101791.31;;;22.25;54.17
67038;BME280;53940;53.204;6.590;2022-07-29T08:17:15;101795.69;;;22.26;54.16
67038;BME280;53940;53.204;6.590;2022-07-29T08:20:15;101792.06;;;22.27;54.07
67038;BME280;53940;53.204;6.590;2022-07-29T08:23:15;101794.00;;;22.25;54.11
67038;BME280;53940;53.204;6.590;2022-07-29T08:26:16;101794.75;;;22.27;53.94
67038;BME280;53940;53.204;6.590;2022-07-29T08:29:16;101791.06;;;22.28;54.04
67038;BME280;53940;53.204;6.590;2022-07-29T08:32:16;101793.75;;;22.28;53.96
67038;BME280;53940;53.204;6.590;2022-07-29T08:35:17;101784.72;;;22.29;54.02
67038;BME280;53940;53.204;6.590;2022-07-29T08:38:17;101784.72;;;22.29;53.98
67038;BME280;53940;53.204;6.590;2022-07-29T08:41:18;101788.13;;;22.31;53.89
67038;BME280;53940;53.204;6.590;2022-07-29T08:44:19;101783.72;;;22.30;53.76
67038;BME280;53940;53.204;6.590;2022-07-29T08:47:21;101787.13;;;22.32;53.82
67038;BME280;53940;53.204;6.590;2022-07-29T08:50:22;101779.06;;;22.32;53.72
67038;BME280;53940;53.204;6.590;2022-07-29T08:53:25;101782.63;;;22.32;53.83
67038;BME280;53940;53.204;6.590;2022-07-29T08:56:26;101773.69;;;22.32;53.70
67038;BME280;53940;53.204;6.590;2022-07-29T08:59:27;101779.94;;;22.32;53.68
67038;BME280;53940;53.204;6.590;2022-07-29T09:02:29;101782.50;;;22.34;53.62
67038;BME280;53940;53.204;6.590;2022-07-29T09:05:33;101779.81;;;22.34;53.73
67038;BME280;53940;53.204;6.590;2022-07-29T09:08:34;101781.63;;;22.33;53.59
67038;BME280;53940;53.204;6.590;2022-07-29T09:11:35;101779.81;;;22.34;53.49
67038;BME280;53940;53.204;6.590;2022-07-29T09:14:35;101778.84;;;22.35;53.54
67038;BME280;53940;53.204;6.590;2022-07-29T09:17:46;101778.84;;;22.35;53.60
67038;BME280;53940;53.204;6.590;2022-07-29T09:20:51;101778.84;;;22.35;53.72
67038;BME280;53940;53.204;6.590;2022-07-29T09:24:13;101785.91;;;22.36;53.57
67038;BME280;53940;53.204;6.590;2022-07-29T09:27:21;101773.47;;;22.35;53.79
67038;BME280;53940;53.204;6.590;2022-07-29T09:30:22;101776.03;;;22.37;53.65
67038;BME280;53940;53.204;6.590;2022-07-29T09:33:23;101777.84;;;22.36;53.48
67038;BME280;53940;53.204;6.590;2022-07-29T09:36:24;101772.34;;;22.38;53.42
67038;BME280;53940;53.204;6.590;2022-07-29T09:39:38;101775.88;;;22.38;53.72
67038;BME280;53940;53.204;6.590;2022-07-29T09:42:48;101777.72;;;22.38;53.58
67038;BME280;53940;53.204;6.590;2022-07-29T09:45:49;101771.50;;;22.37;53.49
67038;BME280;53940;53.204;6.590;2022-07-29T09:49:09;101776.84;;;22.37;53.72
67038;BME280;53940;53.204;6.590;2022-07-29T09:52:09;101779.53;;;22.37;53.33
67038;BME280;53940;53.204;6.590;2022-07-29T09:55:11;101780.28;;;22.39;53.50
67038;BME280;53940;53.204;6.590;2022-07-29T09:58:17;101775.88;;;22.38;53.46
67038;BME280;53940;53.204;6.590;2022-07-29T10:01:27;101774.91;;;22.39;53.69
67038;BME280;53940;53.204;6.590;2022-07-29T10:04:41;101773.19;;;22.38;53.44
67038;BME280;53940;53.204;6.590;2022-07-29T10:07:55;101776.75;;;22.39;53.48
67038;BME280;53940;53.204;6.590;2022-07-29T10:11:09;101778.56;;;22.38;53.43
67038;BME280;53940;53.204;6.590;2022-07-29T10:14:09;101774.91;;;22.39;53.55
67038;BME280;53940;53.204;6.590;2022-07-29T10:17:10;101782.97;;;22.39;53.41
67038;BME280;53940;53.204;6.590;2022-07-29T10:20:10;101780.28;;;22.39;53.45
67038;BME280;53940;53.204;6.590;2022-07-29T10:23:11;101775.75;;;22.40;53.56
67038;BME280;53940;53.204;6.590;2022-07-29T10:26:13;101776.63;;;22.40;53.47
67038;BME280;53940;53.204;6.590;2022-07-29T10:29:14;101768.56;;;22.40;53.30
67038;BME280;53940;53.204;6.590;2022-07-29T10:32:34;101770.25;;;22.41;53.56
67038;BME280;53940;53.204;6.590;2022-07-29T10:35:57;101772.09;;;22.41;53.47
67038;BME280;53940;53.204;6.590;2022-07-29T10:39:14;101771.25;;;22.40;53.41
67038;BME280;53940;53.204;6.590;2022-07-29T10:42:21;101770.25;;;22.41;53.25
67038;BME280;53940;53.204;6.590;2022-07-29T10:45:23;101751.47;;;22.41;53.47
67038;BME280;53940;53.204;6.590;2022-07-29T10:48:24;101756.84;;;22.41;53.42
67038;BME280;53940;53.204;6.590;2022-07-29T10:51:24;101756.84;;;22.41;53.47
67038;BME280;53940;53.204;6.590;2022-07-29T10:57:37;101749.50;;;22.43;53.47
67038;BME280;53940;53.204;6.590;2022-07-29T11:00:39;101751.19;;;22.44;53.47
67038;BME280;53940;53.204;6.590;2022-07-29T11:10:28;101753.75;;;22.46;53.92
67038;BME280;53940;53.204;6.590;2022-07-29T11:17:02;101755.44;;;22.47;53.94
67038;BME280;53940;53.204;6.590;2022-07-29T11:20:35;101761.69;;;22.47;54.06
67038;BME280;53940;53.204;6.590;2022-07-29T11:23:35;101752.66;;;22.48;53.74
67038;BME280;53940;53.204;6.590;2022-07-29T11:26:38;101755.31;;;22.48;53.71
67038;BME280;53940;53.204;6.590;2022-07-29T11:29:56;101758.72;;;22.51;53.98
67038;BME280;53940;53.204;6.590;2022-07-29T11:32:57;101752.44;;;22.52;53.97
67038;BME280;53940;53.204;6.590;2022-07-29T11:36:08;101751.44;;;22.53;53.84
67038;BME280;53940;53.204;6.590;2022-07-29T11:39:25;101749.47;;;22.55;53.94
67038;BME280;53940;53.204;6.590;2022-07-29T11:45:45;101751.03;;;22.57;53.87
67038;BME280;53940;53.204;6.590;2022-07-29T11:48:46;101752.75;;;22.58;53.93
67038;BME280;53940;53.204;6.590;2022-07-29T11:51:51;101744.56;;;22.60;53.71
67038;BME280;53940;53.204;6.590;2022-07-29T11:54:52;101741.75;;;22.61;53.74
67038;BME280;53940;53.204;6.590;2022-07-29T11:57:58;101747.00;;;22.63;53.71
67038;BME280;53940;53.204;6.590;2022-07-29T12:00:59;101747.00;;;22.63;53.64
67038;BME280;53940;53.204;6.590;2022-07-29T12:04:07;101736.97;;;22.65;53.82
67038;BME280;53940;53.204;6.590;2022-07-29T12:07:08;101741.34;;;22.66;53.85
67038;BME280;53940;53.204;6.590;2022-07-29T12:10:11;101735.97;;;22.66;53.78
67038;BME280;53940;53.204;6.590;2022-07-29T12:13:12;101736.69;;;22.68;53.91
67038;BME280;53940;53.204;6.590;2022-07-29T12:16:12;101733.03;;;22.69;53.77
67038;BME280;53940;53.204;6.590;2022-07-29T12:19:13;101729.38;;;22.70;53.75
67038;BME280;53940;53.204;6.590;2022-07-29T12:22:24;101725.81;;;22.70;53.97
67038;BME280;53940;53.204;6.590;2022-07-29T12:25:25;101726.53;;;22.72;53.78
67038;BME280;53940;53.204;6.590;2022-07-29T12:28:26;101726.41;;;22.73;53.62
67038;BME280;53940;53.204;6.590;2022-07-29T12:31:27;101723.72;;;22.73;53.70
67038;BME280;53940;53.204;6.590;2022-07-29T12:34:28;101724.47;;;22.75;53.83
67038;BME280;53940;53.204;6.590;2022-07-29T12:37:29;101719.09;;;22.75;53.76
67038;BME280;53940;53.204;6.590;2022-07-29T12:40:30;101720.78;;;22.77;53.80
67038;BME280;53940;53.204;6.590;2022-07-29T12:43:31;101718.94;;;22.77;53.63
67038;BME280;53940;53.204;6.590;2022-07-29T12:46:32;101712.72;;;22.77;53.63
67038;BME280;53940;53.204;6.590;2022-07-29T12:49:33;101714.41;;;22.78;53.64
67038;BME280;53940;53.204;6.590;2022-07-29T12:52:34;101711.59;;;22.79;53.44
67038;BME280;53940;53.204;6.590;2022-07-29T12:55:43;101709.88;;;22.78;53.58
67038;BME280;53940;53.204;6.590;2022-07-29T12:58:44;101707.06;;;22.80;53.55
67038;BME280;53940;53.204;6.590;2022-07-29T13:01:45;101707.06;;;22.80;53.49
67038;BME280;53940;53.204;6.590;2022-07-29T13:04:58;101712.44;;;22.80;53.64
67038;BME280;53940;53.204;6.590;2022-07-29T13:08:10;101716.81;;;22.81;53.39
67038;BME280;53940;53.204;6.590;2022-07-29T13:11:27;101707.81;;;22.82;53.49
67038;BME280;53940;53.204;6.590;2022-07-29T13:14:32;101710.50;;;22.82;53.45
67038;BME280;53940;53.204;6.590;2022-07-29T13:17:39;101706.81;;;22.83;53.25
67038;BME280;53940;53.204;6.590;2022-07-29T13:20:40;101704.97;;;22.83;53.29
67038;BME280;53940;53.204;6.590;2022-07-29T13:23:40;101696.91;;;22.83;53.36
67038;BME280;53940;53.204;6.590;2022-07-29T13:26:41;101697.75;;;22.84;53.20
67038;BME280;53940;53.204;6.590;2022-07-29T13:29:41;101698.59;;;22.84;53.18
67038;BME280;53940;53.204;6.590;2022-07-29T13:32:41;101699.47;;;22.85;53.43
67038;BME280;53940;53.204;6.590;2022-07-29T13:35:41;101693.22;;;22.84;53.26
67038;BME280;53940;53.204;6.590;2022-07-29T13:38:42;101696.78;;;22.85;53.25
67038;BME280;53940;53.204;6.590;2022-07-29T13:41:42;101703.00;;;22.85;53.23
67038;BME280;53940;53.204;6.590;2022-07-29T13:44:43;101694.09;;;22.85;53.22
67038;BME280;53940;53.204;6.590;2022-07-29T13:47:43;101690.41;;;22.86;53.04
67038;BME280;53940;53.204;6.590;2022-07-29T13:50:44;101690.41;;;22.86;53.13
67038;BME280;53940;53.204;6.590;2022-07-29T13:53:45;101689.56;;;22.85;52.88
67038;BME280;53940;53.204;6.590;2022-07-29T13:56:45;101690.41;;;22.86;53.09
67038;BME280;53940;53.204;6.590;2022-07-29T13:59:46;101688.47;;;22.88;53.10
67038;BME280;53940;53.204;6.590;2022-07-29T14:02:46;101683.09;;;22.88;53.02
67038;BME280;53940;53.204;6.590;2022-07-29T14:05:47;101677.72;;;22.88;53.12
67038;BME280;53940;53.204;6.590;2022-07-29T14:08:47;101687.47;;;22.89;53.04
67038;BME280;53940;53.204;6.590;2022-07-29T14:11:47;101687.47;;;22.89;53.09
67038;BME280;53940;53.204;6.590;2022-07-29T14:14:50;101685.63;;;22.89;53.02
67038;BME280;53940;53.204;6.590;2022-07-29T14:17:50;101691.84;;;22.90;53.07
67038;BME280;53940;53.204;6.590;2022-07-29T14:20:51;101691.84;;;22.90;53.19
67038;BME280;53940;53.204;6.590;2022-07-29T14:23:51;101689.16;;;22.90;53.06
67038;BME280;53940;53.204;6.590;2022-07-29T14:26:52;101691.84;;;22.90;52.94
67038;BME280;53940;53.204;6.590;2022-07-29T14:29:53;101688.16;;;22.91;53.03
67038;BME280;53940;53.204;6.590;2022-07-29T14:32:53;101686.47;;;22.90;53.04
67038;BME280;53940;53.204;6.590;2022-07-29T14:35:53;101690.88;;;22.91;52.92
67038;BME280;53940;53.204;6.590;2022-07-29T14:38:54;101684.50;;;22.92;52.84
67038;BME280;53940;53.204;6.590;2022-07-29T14:41:54;101688.16;;;22.91;52.93
67038;BME280;53940;53.204;6.590;2022-07-29T14:44:54;101688.16;;;22.91;52.93
67038;BME280;53940;53.204;6.590;2022-07-29T14:47:55;101688.16;;;22.91;52.84
67038;BME280;53940;53.204;6.590;2022-07-29T14:50:55;101689.03;;;22.92;52.84
67038;BME280;53940;53.204;6.590;2022-07-29T14:53:56;101693.56;;;22.91;52.86
67038;BME280;53940;53.204;6.590;2022-07-29T14:56:56;101687.31;;;22.91;52.91
67038;BME280;53940;53.204;6.590;2022-07-29T14:59:57;101686.47;;;22.90;52.71
67038;BME280;53940;53.204;6.590;2022-07-29T15:02:58;101694.41;;;22.92;52.77
67038;BME280;53940;53.204;6.590;2022-07-29T15:05:59;101690.88;;;22.91;52.86
67038;BME280;53940;53.204;6.590;2022-07-29T15:08:59;101689.16;;;22.90;52.79
67038;BME280;53940;53.204;6.590;2022-07-29T15:12:03;101690.00;;;22.91;52.68
67038;BME280;53940;53.204;6.590;2022-07-29T15:15:04;101695.38;;;22.91;52.89
67038;BME280;53940;53.204;6.590;2022-07-29T15:18:05;101686.47;;;22.90;52.71
67038;BME280;53940;53.204;6.590;2022-07-29T15:21:05;101691.84;;;22.90;52.87
67038;BME280;53940;53.204;6.590;2022-07-29T15:24:07;101686.47;;;22.90;52.70
67038;BME280;53940;53.204;6.590;2022-07-29T15:27:07;101688.16;;;22.91;52.78
67038;BME280;53940;53.204;6.590;2022-07-29T15:30:13;101689.28;;;22.88;52.83
67038;BME280;53940;53.204;6.590;2022-07-29T15:33:16;101688.28;;;22.89;52.87
67038;BME280;53940;53.204;6.590;2022-07-29T15:36:17;101687.31;;;22.91;52.75
67038;BME280;53940;53.204;6.590;2022-07-29T15:39:19;101687.31;;;22.91;52.57
67038;BME280;53940;53.204;6.590;2022-07-29T15:42:19;101681.09;;;22.90;52.54
67038;BME280;53940;53.204;6.590;2022-07-29T15:45:19;101680.22;;;22.89;52.56
67038;BME280;53940;53.204;6.590;2022-07-29T15:48:20;101679.41;;;22.89;52.93
67038;BME280;53940;53.204;6.590;2022-07-29T15:51:20;101681.94;;;22.91;52.72
67038;BME280;53940;53.204;6.590;2022-07-29T15:54:20;101677.41;;;22.91;52.86
67038;BME280;53940;53.204;6.590;2022-07-29T15:57:21;101674.72;;;22.91;52.95
67038;BME280;53940;53.204;6.590;2022-07-29T16:00:22;101677.41;;;22.91;52.79
67038;BME280;53940;53.204;6.590;2022-07-29T16:03:23;101677.41;;;22.91;52.96
67038;BME280;53940;53.204;6.590;2022-07-29T16:06:23;101673.75;;;22.92;52.74
67038;BME280;53940;53.204;6.590;2022-07-29T16:09:25;101674.59;;;22.93;52.91
67038;BME280;53940;53.204;6.590;2022-07-29T16:12:25;101679.97;;;22.93;52.86
67038;BME280;53940;53.204;6.590;2022-07-29T16:15:25;101676.56;;;22.91;52.92
67038;BME280;53940;53.204;6.590;2022-07-29T16:18:26;101673.75;;;22.92;52.90
67038;BME280;53940;53.204;6.590;2022-07-29T16:21:26;101672.03;;;22.91;52.92